Time;durP1;ratioP1;P1;durP2;ratioP2;P2;SDS_P1;SDS_P2;PMS_P1;PMS_P2;Temp;Humidity;BMP_temperature;BMP_pressure;BME280_temperature;BME280_humidity;BME280_pressure;Samples;Min_cycle;Max_cycle;Signal;HPM_P1;HPM_P2
2021/10/07 00:00:37;;;;;;;;;;;;;;;;;;2107733;27;4788;-76
2021/10/07 00:01:38;;;;;;;;;;;;;;;;;;2109073;27;2182;-75
2021/10/07 00:02:38;;;;;;;;;;;;;;;;;;2107661;27;4829;-75
2021/10/07 00:03:39;;;;;;;;;;;;;;;;;;2108979;27;5168;-75
2021/10/07 00:04:40;;;;;;;;;;;;;;;;;;2108712;27;4309;-75
2021/10/07 00:05:41;;;;;;;;;;;;;;;;;;2109308;27;4454;-75
2021/10/07 00:06:41;;;;;;;;;;;;;;;;;;2108707;27;4543;-75
2021/10/07 00:07:42;;;;;;;;;;;;;;;;;;2108809;27;4414;-76
2021/10/07 00:08:42;;;;;;;;;;;;;;;;;;2107453;27;5044;-76
2021/10/07 00:09:43;;;;;;;;;;;;;;;;;;2109141;27;1942;-75
2021/10/07 00:10:43;;;;;;;;;;;;;;;;;;2108890;27;1479;-75
2021/10/07 00:11:44;;;;;;;;;;;;;;;;;;2109220;27;1318;-75
2021/10/07 00:12:44;;;;;;;;;;;;;;;;;;2110096;27;1314;-75
2021/10/07 00:13:46;;;;;;;;;;;;;;;;;;2107486;27;4903;-76
2021/10/07 00:14:46;;;;;;;;;;;;;;;;;;2108244;27;4863;-75
2021/10/07 00:15:47;;;;;;;;;;;;;;;;;;2108000;27;4396;-76
2021/10/07 00:16:47;;;;;;;;;;;;;;;;;;2109594;27;1332;-76
2021/10/07 00:17:48;;;;;;;;;;;;;;;;;;2109535;27;2778;-76
2021/10/07 00:18:50;;;;;;;;;;;;;;;;;;2107509;27;3777;-75
2021/10/07 00:19:51;;;;;;;;;;;;;;;;;;2108899;27;1244;-75
2021/10/07 00:20:51;;;;;;;;;;;;;;;;;;2109175;27;1203;-76
2021/10/07 00:21:52;;;;;;;;;;;;;;;;;;2108985;27;4207;-76
2021/10/07 00:22:52;;;;;;;;;;;;;;;;;;2107924;27;4754;-76
2021/10/07 00:24:06;;;;;;;;;;;;;;;;;;2108586;27;1246;-76
2021/10/07 00:25:07;;;;;;;;;;;;;;;;;;2108774;27;4816;-76
2021/10/07 00:26:09;;;;;;;;;;;;;;;;;;2109246;27;1008;-76
2021/10/07 00:27:09;;;;;;;;;;;;;;;;;;2109400;27;1085;-76
2021/10/07 00:28:11;;;;;;;;;;;;;;;;;;2109347;27;4502;-75
2021/10/07 00:30:27;;;;;;;;;;;;;;;;;;2104210;27;4983;-75
2021/10/07 00:31:31;;;;;;;;;;;;;;;;;;2108574;27;4916;-75
2021/10/07 00:32:34;;;;;;;;;;;;;;;;;;2109809;27;4674;-75
2021/10/07 00:33:42;;;;;;;;;;;;;;;;;;2108210;27;2917;-76
2021/10/07 00:34:57;;;;;;;;;;;;;;;;;;2108955;27;4420;-75
2021/10/07 00:36:09;;;;;;;;;;;;;;;;;;2110052;27;1134;-76
2021/10/07 00:37:20;;;;;;;;;;;;;;;;;;2109475;27;1154;-75
2021/10/07 00:39:40;;;;;;;;;;;;;;;;;;2109764;27;4570;-75
2021/10/07 00:40:41;;;;;;;;;;;;;;;;;;2108685;27;1307;-76
2021/10/07 00:41:42;;;;;;;;;;;;;;;;;;2109584;27;4266;-76
2021/10/07 00:42:42;;;;;;;;;;;;;;;;;;2108748;27;1184;-76
2021/10/07 00:43:43;;;;;;;;;;;;;;;;;;2108918;27;4213;-76
2021/10/07 00:44:44;;;;;;;;;;;;;;;;;;2109765;27;3536;-76
2021/10/07 00:45:45;;;;;;;;;;;;;;;;;;2109059;27;4565;-76
2021/10/07 00:46:46;;;;;;;;;;;;;;;;;;2108588;27;4451;-76
2021/10/07 00:47:47;;;;;;;;;;;;;;;;;;2109000;27;4353;-76
2021/10/07 00:48:47;;;;;;;;;;;;;;;;;;2108299;27;4784;-76
2021/10/07 00:49:48;;;;;;;;;;;;;;;;;;2108595;27;1945;-75
2021/10/07 00:50:48;;;;;;;;;;;;;;;;;;2108784;27;3634;-76
2021/10/07 00:51:49;;;;;;;;;;;;;;;;;;2108218;27;3346;-76
2021/10/07 00:52:50;;;;;;;;;;;;;;;;;;2108188;27;4940;-75
2021/10/07 00:53:51;;;;;;;;;;;;;;;;;;2108400;27;2805;-75
2021/10/07 00:54:52;;;;;;;;;;;;;;;;;;2108740;27;1173;-76
2021/10/07 00:55:52;;;;;;;;;;;;;;;;;;2109080;27;1293;-76
2021/10/07 00:56:53;;;;;;;;;;;;;;;;;;2109079;27;1227;-76
2021/10/07 00:57:53;;;;;;;;;;;;;;;;;;2108921;27;3116;-75
2021/10/07 00:58:54;;;;;;;;;;;;;;;;;;2107696;27;4971;-75
2021/10/07 00:59:54;;;;;;;;;;;;;;;;;;2108842;27;1380;-75
2021/10/07 01:00:55;;;;;;;;;;;;;;;;;;2108432;27;3375;-75
2021/10/07 01:01:55;;;;;;;;;;;;;;;;;;2109626;27;4386;-76
2021/10/07 01:02:57;;;;;;;;;;;;;;;;;;2108746;27;4392;-75
2021/10/07 01:03:57;;;;;;;;;;;;;;;;;;2108646;27;1277;-76
2021/10/07 01:04:58;;;;;;;;;;;;;;;;;;2108432;27;3954;-75
2021/10/07 01:05:58;;;;;;;;;;;;;;;;;;2108108;27;1234;-76
2021/10/07 01:06:59;;;;;;;;;;;;;;;;;;2108923;27;5046;-76
2021/10/07 01:07:59;;;;;;;;;;;;;;;;;;2109257;27;1149;-76
2021/10/07 01:09:00;;;;;;;;;;;;;;;;;;2108471;27;4773;-75
2021/10/07 01:10:00;;;;;;;;;;;;;;;;;;2107644;27;4853;-76
2021/10/07 01:11:01;;;;;;;;;;;;;;;;;;2109562;27;1331;-76
2021/10/07 01:12:01;;;;;;;;;;;;;;;;;;2109069;27;1500;-76
2021/10/07 01:13:03;;;;;;;;;;;;;;;;;;2108163;27;4738;-75
2021/10/07 01:14:03;;;;;;;;;;;;;;;;;;2108771;27;4162;-75
2021/10/07 01:15:04;;;;;;;;;;;;;;;;;;2109709;27;1251;-75
2021/10/07 01:16:04;;;;;;;;;;;;;;;;;;2110005;27;1472;-75
2021/10/07 01:17:05;;;;;;;;;;;;;;;;;;2109872;27;2636;-76
2021/10/07 01:18:05;;;;;;;;;;;;;;;;;;2109306;27;1081;-76
2021/10/07 01:19:06;;;;;;;;;;;;;;;;;;2108430;27;4836;-75
2021/10/07 01:20:06;;;;;;;;;;;;;;;;;;2110189;27;1315;-76
2021/10/07 01:21:08;;;;;;;;;;;;;;;;;;2108332;27;1311;-75
2021/10/07 01:22:08;;;;;;;;;;;;;;;;;;2109428;27;3071;-76
2021/10/07 01:23:09;;;;;;;;;;;;;;;;;;2106826;27;4819;-76
2021/10/07 01:24:10;;;;;;;;;;;;;;;;;;2109351;27;4563;-76
2021/10/07 01:25:10;;;;;;;;;;;;;;;;;;2108140;27;4313;-76
2021/10/07 01:26:11;;;;;;;;;;;;;;;;;;2109863;27;1133;-75
2021/10/07 01:27:11;;;;;;;;;;;;;;;;;;2110121;27;1052;-76
2021/10/07 01:28:12;;;;;;;;;;;;;;;;;;2110345;27;1098;-75
2021/10/07 01:29:12;;;;;;;;;;;;;;;;;;2108802;27;4817;-76
2021/10/07 01:30:14;;;;;;;;;;;;;;;;;;2108689;27;5034;-76
2021/10/07 01:31:14;;;;;;;;;;;;;;;;;;2108988;27;3382;-76
2021/10/07 01:32:15;;;;;;;;;;;;;;;;;;2108312;27;5027;-75
2021/10/07 01:33:15;;;;;;;;;;;;;;;;;;2108647;27;1269;-76
2021/10/07 01:34:16;;;;;;;;;;;;;;;;;;2109065;27;4555;-76
2021/10/07 01:35:16;;;;;;;;;;;;;;;;;;2109663;27;2514;-76
2021/10/07 01:36:17;;;;;;;;;;;;;;;;;;2108565;27;3223;-76
2021/10/07 01:37:17;;;;;;;;;;;;;;;;;;2110117;27;1426;-75
2021/10/07 01:38:18;;;;;;;;;;;;;;;;;;2110037;27;1361;-75
2021/10/07 01:39:19;;;;;;;;;;;;;;;;;;2107672;27;4624;-76
2021/10/07 01:40:20;;;;;;;;;;;;;;;;;;2109005;27;4394;-75
2021/10/07 01:41:20;;;;;;;;;;;;;;;;;;2107831;27;4884;-76
2021/10/07 01:42:21;;;;;;;;;;;;;;;;;;2107859;27;5197;-76
2021/10/07 01:43:21;;;;;;;;;;;;;;;;;;2109117;27;4840;-75
2021/10/07 01:44:22;;;;;;;;;;;;;;;;;;2109381;27;4980;-75
2021/10/07 01:45:22;;;;;;;;;;;;;;;;;;2108502;27;3770;-76
2021/10/07 01:46:23;;;;;;;;;;;;;;;;;;2109842;27;1192;-76
2021/10/07 01:47:24;;;;;;;;;;;;;;;;;;2108788;27;3754;-76
2021/10/07 01:48:25;;;;;;;;;;;;;;;;;;2107091;27;4876;-76
2021/10/07 01:49:25;;;;;;;;;;;;;;;;;;2108958;27;4603;-76
2021/10/07 01:50:26;;;;;;;;;;;;;;;;;;2109341;27;2007;-76
2021/10/07 01:51:26;;;;;;;;;;;;;;;;;;2109653;27;4870;-75
2021/10/07 01:52:27;;;;;;;;;;;;;;;;;;2110641;27;4270;-75
2021/10/07 01:53:27;;;;;;;;;;;;;;;;;;2111878;27;1554;-76
2021/10/07 01:54:29;;;;;;;;;;;;;;;;;;2112044;27;4226;-76
2021/10/07 01:55:29;;;;;;;;;;;;;;;;;;2112113;27;1242;-76
2021/10/07 01:56:30;;;;;;;;;;;;;;;;;;2112009;27;1401;-75
2021/10/07 01:57:30;;;;;;;;;;;;;;;;;;2110987;27;4802;-75
2021/10/07 01:58:31;;;;;;;;;;;;;;;;;;2109164;27;3433;-76
2021/10/07 01:59:31;;;;;;;;;;;;;;;;;;2111191;27;1175;-76
2021/10/07 02:00:32;;;;;;;;;;;;;;;;;;2110847;27;4251;-75
2021/10/07 02:01:32;;;;;;;;;;;;;;;;;;2110435;27;4193;-76
2021/10/07 02:02:33;;;;;;;;;;;;;;;;;;2111352;27;1033;-76
2021/10/07 02:03:34;;;;;;;;;;;;;;;;;;2110463;27;4281;-76
2021/10/07 02:04:35;;;;;;;;;;;;;;;;;;2112192;27;1286;-76
2021/10/07 02:05:36;;;;;;;;;;;;;;;;;;2110715;27;1453;-76
2021/10/07 02:06:36;;;;;;;;;;;;;;;;;;2109733;27;4414;-76
2021/10/07 02:07:37;;;;;;;;;;;;;;;;;;2109502;27;4624;-76
2021/10/07 02:08:38;;;;;;;;;;;;;;;;;;2109008;27;5336;-76
2021/10/07 02:09:38;;;;;;;;;;;;;;;;;;2110449;27;3272;-75
2021/10/07 02:10:39;;;;;;;;;;;;;;;;;;2110045;27;3529;-76
2021/10/07 02:11:40;;;;;;;;;;;;;;;;;;2110991;27;1404;-76
2021/10/07 02:12:41;;;;;;;;;;;;;;;;;;2111337;27;1250;-75
2021/10/07 02:13:41;;;;;;;;;;;;;;;;;;2110823;27;1309;-76
2021/10/07 02:14:42;;;;;;;;;;;;;;;;;;2110312;27;4121;-75
2021/10/07 02:15:42;;;;;;;;;;;;;;;;;;2111009;27;3822;-76
2021/10/07 02:16:43;;;;;;;;;;;;;;;;;;2110765;27;3008;-76
2021/10/07 02:17:43;;;;;;;;;;;;;;;;;;2111073;27;5108;-75
2021/10/07 02:18:44;;;;;;;;;;;;;;;;;;2109491;27;4726;-76
2021/10/07 02:19:44;;;;;;;;;;;;;;;;;;2111087;27;1113;-76
2021/10/07 02:20:45;;;;;;;;;;;;;;;;;;2111402;27;1358;-76
2021/10/07 02:21:46;;;;;;;;;;;;;;;;;;2110579;27;3469;-76
2021/10/07 02:22:47;;;;;;;;;;;;;;;;;;2108796;27;4678;-76
2021/10/07 02:23:47;;;;;;;;;;;;;;;;;;2111178;27;1290;-75
2021/10/07 02:24:48;;;;;;;;;;;;;;;;;;2111348;27;1282;-75
2021/10/07 02:25:48;;;;;;;;;;;;;;;;;;2110356;27;4715;-76
2021/10/07 02:26:49;;;;;;;;;;;;;;;;;;2109375;27;3594;-75
2021/10/07 02:27:49;;;;;;;;;;;;;;;;;;2108773;27;4541;-75
2021/10/07 02:28:50;;;;;;;;;;;;;;;;;;2107792;27;4332;-75
2021/10/07 02:29:50;;;;;;;;;;;;;;;;;;2108930;27;2009;-76
2021/10/07 02:30:53;;;;;;;;;;;;;;;;;;2108856;27;4909;-76
2021/10/07 02:31:53;;;;;;;;;;;;;;;;;;2108877;27;3307;-76
2021/10/07 02:32:54;;;;;;;;;;;;;;;;;;2109199;27;4324;-76
2021/10/07 02:33:55;;;;;;;;;;;;;;;;;;2108994;27;4232;-76
2021/10/07 02:34:56;;;;;;;;;;;;;;;;;;2109280;27;1954;-76
2021/10/07 02:35:57;;;;;;;;;;;;;;;;;;2106422;27;2813;-76
2021/10/07 02:36:57;;;;;;;;;;;;;;;;;;2108198;27;3008;-76
2021/10/07 02:37:58;;;;;;;;;;;;;;;;;;2109330;27;1390;-76
2021/10/07 02:38:58;;;;;;;;;;;;;;;;;;2107376;27;4543;-76
2021/10/07 02:39:59;;;;;;;;;;;;;;;;;;2108059;27;4569;-76
2021/10/07 02:41:00;;;;;;;;;;;;;;;;;;2107166;27;4240;-76
2021/10/07 02:42:01;;;;;;;;;;;;;;;;;;2109737;27;1458;-76
2021/10/07 02:43:01;;;;;;;;;;;;;;;;;;2106910;27;4935;-76
2021/10/07 02:44:02;;;;;;;;;;;;;;;;;;2107032;27;4972;-76
2021/10/07 02:45:02;;;;;;;;;;;;;;;;;;2107661;27;4082;-75
2021/10/07 02:46:03;;;;;;;;;;;;;;;;;;2107519;27;4128;-76
2021/10/07 02:47:03;;;;;;;;;;;;;;;;;;2109203;27;4546;-75
2021/10/07 02:48:04;;;;;;;;;;;;;;;;;;2106380;27;4914;-76
2021/10/07 02:49:05;;;;;;;;;;;;;;;;;;2107390;27;4426;-76
2021/10/07 02:50:06;;;;;;;;;;;;;;;;;;2107859;27;5329;-76
2021/10/07 02:51:07;;;;;;;;;;;;;;;;;;2108679;27;4887;-76
2021/10/07 02:52:07;;;;;;;;;;;;;;;;;;2108489;27;2118;-76
2021/10/07 02:53:08;;;;;;;;;;;;;;;;;;2108279;27;4860;-76
2021/10/07 02:54:08;;;;;;;;;;;;;;;;;;2108947;27;5031;-75
2021/10/07 02:55:09;;;;;;;;;;;;;;;;;;2109716;27;1216;-75
2021/10/07 02:56:09;;;;;;;;;;;;;;;;;;2107909;27;4054;-76
2021/10/07 02:57:10;;;;;;;;;;;;;;;;;;2107841;27;5316;-75
2021/10/07 02:58:11;;;;;;;;;;;;;;;;;;2104864;27;6077;-75
2021/10/07 02:59:12;;;;;;;;;;;;;;;;;;2106809;27;5640;-75
2021/10/07 03:00:13;;;;;;;;;;;;;;;;;;2109131;27;4951;-75
2021/10/07 03:01:14;;;;;;;;;;;;;;;;;;2108366;27;4866;-76
2021/10/07 03:02:15;;;;;;;;;;;;;;;;;;2107353;27;4878;-75
2021/10/07 03:03:16;;;;;;;;;;;;;;;;;;2108625;27;4884;-76
2021/10/07 03:04:16;;;;;;;;;;;;;;;;;;2105157;27;4916;-76
2021/10/07 03:05:17;;;;;;;;;;;;;;;;;;2107519;27;4751;-76
2021/10/07 03:06:17;;;;;;;;;;;;;;;;;;2107576;27;1208;-76
2021/10/07 03:07:19;;;;;;;;;;;;;;;;;;2106495;27;4726;-75
2021/10/07 03:08:23;;;;;;;;;;;;;;;;;;2107244;27;4026;-76
2021/10/07 03:09:24;;;;;;;;;;;;;;;;;;2105414;27;5082;-76
2021/10/07 03:10:25;;;;;;;;;;;;;;;;;;2105625;27;4792;-76
2021/10/07 03:11:26;;;;;;;;;;;;;;;;;;2104089;27;5047;-76
2021/10/07 03:12:26;;;;;;;;;;;;;;;;;;2105359;27;5111;-76
2021/10/07 03:13:28;;;;;;;;;;;;;;;;;;2104509;27;5486;-75
2021/10/07 03:14:28;;;;;;;;;;;;;;;;;;2106522;27;4721;-76
2021/10/07 03:15:29;;;;;;;;;;;;;;;;;;2106146;27;4817;-76
2021/10/07 03:16:29;;;;;;;;;;;;;;;;;;2106629;27;4944;-76
2021/10/07 03:17:30;;;;;;;;;;;;;;;;;;2105245;27;5011;-76
2021/10/07 03:18:30;;;;;;;;;;;;;;;;;;2106520;27;4634;-76
2021/10/07 03:19:32;;;;;;;;;;;;;;;;;;2106480;27;4688;-76
2021/10/07 03:20:33;;;;;;;;;;;;;;;;;;2106266;27;1243;-75
2021/10/07 03:21:33;;;;;;;;;;;;;;;;;;2106461;27;1078;-76
2021/10/07 03:22:34;;;;;;;;;;;;;;;;;;2106049;27;5207;-76
2021/10/07 03:23:34;;;;;;;;;;;;;;;;;;2106005;27;4876;-76
2021/10/07 03:24:35;;;;;;;;;;;;;;;;;;2105856;27;4151;-76
2021/10/07 03:25:35;;;;;;;;;;;;;;;;;;2105380;27;2446;-76
2021/10/07 03:26:36;;;;;;;;;;;;;;;;;;2106230;27;3998;-76
2021/10/07 03:27:36;;;;;;;;;;;;;;;;;;2106356;27;4436;-76
2021/10/07 03:28:37;;;;;;;;;;;;;;;;;;2106385;27;4282;-76
2021/10/07 03:29:38;;;;;;;;;;;;;;;;;;2108543;27;1155;-76
2021/10/07 03:30:39;;;;;;;;;;;;;;;;;;2107425;27;4254;-76
2021/10/07 03:31:39;;;;;;;;;;;;;;;;;;2107217;27;4264;-76
2021/10/07 03:32:40;;;;;;;;;;;;;;;;;;2107575;27;1107;-76
2021/10/07 03:33:40;;;;;;;;;;;;;;;;;;2107705;27;1434;-75
2021/10/07 03:34:41;;;;;;;;;;;;;;;;;;2108884;27;1283;-76
2021/10/07 03:35:42;;;;;;;;;;;;;;;;;;2109084;27;4221;-75
2021/10/07 03:36:43;;;;;;;;;;;;;;;;;;2109233;27;4443;-76
2021/10/07 03:37:44;;;;;;;;;;;;;;;;;;2109717;27;1472;-75
2021/10/07 03:38:45;;;;;;;;;;;;;;;;;;2108232;27;3769;-76
2021/10/07 03:39:46;;;;;;;;;;;;;;;;;;2108738;27;4316;-76
2021/10/07 03:40:46;;;;;;;;;;;;;;;;;;2109010;27;4249;-76
2021/10/07 03:42:40;;;;;;;;;;;;;;;;;;2124231;27;2054;-76
2021/10/07 03:43:40;;;;;;;;;;;;;;;;;;2121976;27;3584;-76
2021/10/07 03:44:42;;;;;;;;;;;;;;;;;;2121648;27;1274;-76
2021/10/07 03:45:42;;;;;;;;;;;;;;;;;;2122198;27;1543;-76
2021/10/07 03:46:43;;;;;;;;;;;;;;;;;;2120979;27;4467;-76
2021/10/07 03:47:43;;;;;;;;;;;;;;;;;;2121728;27;3286;-76
2021/10/07 03:48:44;;;;;;;;;;;;;;;;;;2120168;27;4323;-76
2021/10/07 03:49:44;;;;;;;;;;;;;;;;;;2121765;27;1180;-76
2021/10/07 03:50:46;;;;;;;;;;;;;;;;;;2110397;27;4486;-76
2021/10/07 03:51:46;;;;;;;;;;;;;;;;;;2109977;28;1465;-76
2021/10/07 03:52:47;;;;;;;;;;;;;;;;;;2107560;27;2224;-76
2021/10/07 03:53:47;;;;;;;;;;;;;;;;;;2107444;27;4059;-76
2021/10/07 03:54:48;;;;;;;;;;;;;;;;;;2109741;27;1899;-76
2021/10/07 03:55:48;;;;;;;;;;;;;;;;;;2109860;27;1211;-76
2021/10/07 03:56:49;;;;;;;;;;;;;;;;;;2108660;27;1737;-76
2021/10/07 03:57:49;;;;;;;;;;;;;;;;;;2109169;28;2101;-76
2021/10/07 03:58:51;;;;;;;;;;;;;;;;;;2108692;27;4485;-76
2021/10/07 03:59:51;;;;;;;;;;;;;;;;;;2109307;27;2646;-76
2021/10/07 04:00:52;;;;;;;;;;;;;;;;;;2109434;27;3220;-76
2021/10/07 04:01:52;;;;;;;;;;;;;;;;;;2109266;28;3363;-76
2021/10/07 04:02:53;;;;;;;;;;;;;;;;;;2109555;27;1334;-76
2021/10/07 04:03:53;;;;;;;;;;;;;;;;;;2109771;27;1787;-76
2021/10/07 04:04:54;;;;;;;;;;;;;;;;;;2110417;28;1025;-76
2021/10/07 04:05:55;;;;;;;;;;;;;;;;;;2107803;27;3875;-76
2021/10/07 04:06:56;;;;;;;;;;;;;;;;;;2110178;27;4611;-75
2021/10/07 04:07:56;;;;;;;;;;;;;;;;;;2108737;27;4202;-76
2021/10/07 04:08:57;;;;;;;;;;;;;;;;;;2107987;27;3170;-76
2021/10/07 04:09:59;;;;;;;;;;;;;;;;;;2107442;27;3493;-76
2021/10/07 04:11:00;;;;;;;;;;;;;;;;;;2107057;27;3907;-76
2021/10/07 04:12:00;;;;;;;;;;;;;;;;;;2107677;27;4490;-75
2021/10/07 04:13:01;;;;;;;;;;;;;;;;;;2108378;27;1307;-76
2021/10/07 04:14:01;;;;;;;;;;;;;;;;;;2106997;27;4462;-76
2021/10/07 04:15:02;;;;;;;;;;;;;;;;;;2108060;27;3997;-75
2021/10/07 04:16:03;;;;;;;;;;;;;;;;;;2107676;27;4700;-76
2021/10/07 04:17:03;;;;;;;;;;;;;;;;;;2108593;27;1279;-76
2021/10/07 04:18:04;;;;;;;;;;;;;;;;;;2107696;27;1295;-75
2021/10/07 04:19:05;;;;;;;;;;;;;;;;;;2107029;28;4544;-75
2021/10/07 04:20:06;;;;;;;;;;;;;;;;;;2108222;27;1457;-76
2021/10/07 04:21:07;;;;;;;;;;;;;;;;;;2105916;27;4383;-76
2021/10/07 04:22:07;;;;;;;;;;;;;;;;;;2106416;27;3477;-75
2021/10/07 04:23:09;;;;;;;;;;;;;;;;;;2107298;27;2573;-76
2021/10/07 04:24:09;;;;;;;;;;;;;;;;;;2107722;27;3345;-76
2021/10/07 04:25:10;;;;;;;;;;;;;;;;;;2108084;27;1109;-75
2021/10/07 04:26:10;;;;;;;;;;;;;;;;;;2108439;27;1229;-76
2021/10/07 04:27:14;;;;;;;;;;;;;;;;;;2108400;27;1045;-76
2021/10/07 04:28:16;;;;;;;;;;;;;;;;;;2107531;28;1205;-76
2021/10/07 04:29:17;;;;;;;;;;;;;;;;;;2107275;27;2441;-76
2021/10/07 04:30:18;;;;;;;;;;;;;;;;;;2107799;28;1408;-75
2021/10/07 04:31:20;;;;;;;;;;;;;;;;;;2107988;27;2278;-75
2021/10/07 04:32:20;;;;;;;;;;;;;;;;;;2108420;27;1298;-76
2021/10/07 04:33:21;;;;;;;;;;;;;;;;;;2107782;27;4265;-76
2021/10/07 04:34:21;;;;;;;;;;;;;;;;;;2106439;27;4376;-76
2021/10/07 04:35:22;;;;;;;;;;;;;;;;;;2104298;27;5414;-76
2021/10/07 04:36:22;;;;;;;;;;;;;;;;;;2104460;27;3414;-76
2021/10/07 04:37:23;;;;;;;;;;;;;;;;;;2104713;27;4157;-76
2021/10/07 04:38:23;;;;;;;;;;;;;;;;;;2104451;27;4134;-76
2021/10/07 04:39:24;;;;;;;;;;;;;;;;;;2104913;27;4178;-76
2021/10/07 04:40:25;;;;;;;;;;;;;;;;;;2104781;27;3883;-75
2021/10/07 04:41:26;;;;;;;;;;;;;;;;;;2104495;27;4339;-76
2021/10/07 04:42:26;;;;;;;;;;;;;;;;;;2105036;27;2138;-76
2021/10/07 04:43:27;;;;;;;;;;;;;;;;;;2105051;27;1348;-76
2021/10/07 04:44:27;;;;;;;;;;;;;;;;;;2106158;27;1140;-75
2021/10/07 04:45:28;;;;;;;;;;;;;;;;;;2106218;27;1376;-76
2021/10/07 04:46:29;;;;;;;;;;;;;;;;;;2106073;27;2786;-76
2021/10/07 04:47:29;;;;;;;;;;;;;;;;;;2105922;27;1113;-76
2021/10/07 04:48:31;;;;;;;;;;;;;;;;;;2105455;27;4391;-76
2021/10/07 04:49:31;;;;;;;;;;;;;;;;;;2106704;27;1299;-76
2021/10/07 04:50:32;;;;;;;;;;;;;;;;;;2105615;28;2695;-76
2021/10/07 04:51:32;;;;;;;;;;;;;;;;;;2105164;27;4472;-76
2021/10/07 04:52:33;;;;;;;;;;;;;;;;;;2105980;27;1291;-76
2021/10/07 04:53:33;;;;;;;;;;;;;;;;;;2100159;28;1249;-76
2021/10/07 04:54:34;;;;;;;;;;;;;;;;;;2100714;27;4158;-76
2021/10/07 04:55:35;;;;;;;;;;;;;;;;;;2100563;28;1164;-76
2021/10/07 04:56:35;;;;;;;;;;;;;;;;;;2100357;28;4135;-76
2021/10/07 04:57:36;;;;;;;;;;;;;;;;;;2100659;28;1065;-76
2021/10/07 04:58:37;;;;;;;;;;;;;;;;;;2100311;28;4495;-76
2021/10/07 04:59:38;;;;;;;;;;;;;;;;;;2101150;28;1010;-75
2021/10/07 05:00:38;;;;;;;;;;;;;;;;;;2100561;28;4482;-76
2021/10/07 05:01:39;;;;;;;;;;;;;;;;;;2101549;28;2016;-76
2021/10/07 05:02:39;;;;;;;;;;;;;;;;;;2101724;28;1262;-76
2021/10/07 05:03:40;;;;;;;;;;;;;;;;;;2101927;28;1332;-76
2021/10/07 05:04:40;;;;;;;;;;;;;;;;;;2101306;28;2663;-76
2021/10/07 05:05:42;;;;;;;;;;;;;;;;;;2099815;28;1375;-76
2021/10/07 05:06:43;;;;;;;;;;;;;;;;;;2101578;28;1268;-76
2021/10/07 05:07:44;;;;;;;;;;;;;;;;;;2101233;28;4426;-76
2021/10/07 05:08:44;;;;;;;;;;;;;;;;;;2101247;28;4088;-76
2021/10/07 05:09:45;;;;;;;;;;;;;;;;;;2101278;28;3775;-76
2021/10/07 05:10:46;;;;;;;;;;;;;;;;;;2100554;28;4246;-76
2021/10/07 05:11:46;;;;;;;;;;;;;;;;;;2101260;27;4950;-76
2021/10/07 05:12:47;;;;;;;;;;;;;;;;;;2102658;28;1193;-76
2021/10/07 05:13:49;;;;;;;;;;;;;;;;;;2102059;28;1176;-75
2021/10/07 05:14:49;;;;;;;;;;;;;;;;;;2101447;28;3532;-76
2021/10/07 05:15:50;;;;;;;;;;;;;;;;;;2102411;28;4314;-76
2021/10/07 05:16:50;;;;;;;;;;;;;;;;;;2102732;28;1263;-76
2021/10/07 05:17:51;;;;;;;;;;;;;;;;;;2102548;28;2352;-76
2021/10/07 05:18:52;;;;;;;;;;;;;;;;;;2101647;28;4454;-76
2021/10/07 05:19:53;;;;;;;;;;;;;;;;;;2102936;28;1364;-76
2021/10/07 05:20:54;;;;;;;;;;;;;;;;;;2102465;28;1169;-76
2021/10/07 05:21:54;;;;;;;;;;;;;;;;;;2102673;28;4690;-75
2021/10/07 05:22:55;;;;;;;;;;;;;;;;;;2103038;28;1255;-76
2021/10/07 05:23:55;;;;;;;;;;;;;;;;;;2100604;28;4163;-76
2021/10/07 05:24:56;;;;;;;;;;;;;;;;;;2100862;28;1053;-76
2021/10/07 05:25:56;;;;;;;;;;;;;;;;;;2099961;28;1069;-76
2021/10/07 05:26:57;;;;;;;;;;;;;;;;;;2099342;28;4490;-76
2021/10/07 05:27:59;;;;;;;;;;;;;;;;;;2100049;28;4257;-75
2021/10/07 05:29:00;;;;;;;;;;;;;;;;;;2099521;27;4039;-75
2021/10/07 05:30:01;;;;;;;;;;;;;;;;;;2100545;28;1324;-76
2021/10/07 05:31:01;;;;;;;;;;;;;;;;;;2099955;28;3777;-76
2021/10/07 05:32:02;;;;;;;;;;;;;;;;;;2100531;28;1305;-76
2021/10/07 05:33:02;;;;;;;;;;;;;;;;;;2099740;28;3355;-76
2021/10/07 05:34:03;;;;;;;;;;;;;;;;;;2100253;28;4279;-76
2021/10/07 05:35:04;;;;;;;;;;;;;;;;;;2100860;28;1170;-76
2021/10/07 05:36:06;;;;;;;;;;;;;;;;;;2098647;28;4304;-76
2021/10/07 05:37:06;;;;;;;;;;;;;;;;;;2100108;28;1158;-76
2021/10/07 05:38:07;;;;;;;;;;;;;;;;;;2100250;28;4092;-76
2021/10/07 05:39:08;;;;;;;;;;;;;;;;;;2098921;28;4351;-76
2021/10/07 05:40:09;;;;;;;;;;;;;;;;;;2100449;28;4313;-76
2021/10/07 05:41:09;;;;;;;;;;;;;;;;;;2099867;28;1268;-76
2021/10/07 05:42:10;;;;;;;;;;;;;;;;;;2100281;28;1992;-76
2021/10/07 05:43:10;;;;;;;;;;;;;;;;;;2100376;28;1098;-76
2021/10/07 05:44:11;;;;;;;;;;;;;;;;;;2100561;28;1231;-76
2021/10/07 05:45:11;;;;;;;;;;;;;;;;;;2100474;28;1248;-76
2021/10/07 05:46:12;;;;;;;;;;;;;;;;;;2099159;28;4479;-76
2021/10/07 05:47:13;;;;;;;;;;;;;;;;;;2099815;28;4522;-76
2021/10/07 05:48:14;;;;;;;;;;;;;;;;;;2100463;28;1044;-76
2021/10/07 05:49:14;;;;;;;;;;;;;;;;;;2100872;28;2996;-76
2021/10/07 05:50:15;;;;;;;;;;;;;;;;;;2099878;28;1308;-76
2021/10/07 05:51:15;;;;;;;;;;;;;;;;;;2100241;28;1172;-76
2021/10/07 05:52:16;;;;;;;;;;;;;;;;;;2100113;28;2830;-76
2021/10/07 05:53:17;;;;;;;;;;;;;;;;;;2101204;28;4140;-76
2021/10/07 05:54:19;;;;;;;;;;;;;;;;;;2100503;28;4405;-76
2021/10/07 05:55:20;;;;;;;;;;;;;;;;;;2099590;28;1181;-75
2021/10/07 05:56:20;;;;;;;;;;;;;;;;;;2100541;28;1224;-76
2021/10/07 05:57:21;;;;;;;;;;;;;;;;;;2101156;28;1423;-75
2021/10/07 05:58:21;;;;;;;;;;;;;;;;;;2100617;28;2078;-75
2021/10/07 05:59:22;;;;;;;;;;;;;;;;;;2100989;28;2847;-76
2021/10/07 06:00:23;;;;;;;;;;;;;;;;;;2099469;28;3128;-75
2021/10/07 06:01:23;;;;;;;;;;;;;;;;;;2100081;28;2373;-76
2021/10/07 06:02:25;;;;;;;;;;;;;;;;;;2100677;28;3027;-76
2021/10/07 06:03:25;;;;;;;;;;;;;;;;;;2099845;27;2503;-76
2021/10/07 06:04:26;;;;;;;;;;;;;;;;;;2098550;28;2229;-76
2021/10/07 06:05:27;;;;;;;;;;;;;;;;;;2096677;28;1331;-76
2021/10/07 06:06:27;;;;;;;;;;;;;;;;;;2098403;28;4412;-76
2021/10/07 06:07:28;;;;;;;;;;;;;;;;;;2097953;28;1262;-76
2021/10/07 06:08:28;;;;;;;;;;;;;;;;;;2098462;28;1198;-76
2021/10/07 06:09:29;;;;;;;;;;;;;;;;;;2097111;27;4910;-76
2021/10/07 06:10:30;;;;;;;;;;;;;;;;;;2098350;28;2965;-76
2021/10/07 06:11:31;;;;;;;;;;;;;;;;;;2098380;28;2665;-76
2021/10/07 06:12:31;;;;;;;;;;;;;;;;;;2098680;28;1319;-76
2021/10/07 06:13:32;;;;;;;;;;;;;;;;;;2098725;28;2310;-76
2021/10/07 06:14:33;;;;;;;;;;;;;;;;;;2098367;28;1166;-76
2021/10/07 06:15:34;;;;;;;;;;;;;;;;;;2098920;28;1150;-76
2021/10/07 06:16:38;;;;;;;;;;;;;;;;;;2098081;28;3475;-76
2021/10/07 06:17:39;;;;;;;;;;;;;;;;;;2098373;28;2899;-76
2021/10/07 06:18:41;;;;;;;;;;;;;;;;;;2098433;28;3328;-76
2021/10/07 06:19:44;;;;;;;;;;;;;;;;;;2097000;28;2592;-75
2021/10/07 06:20:44;;;;;;;;;;;;;;;;;;2098305;28;2839;-76
2021/10/07 06:21:45;;;;;;;;;;;;;;;;;;2098281;28;2373;-76
2021/10/07 06:22:45;;;;;;;;;;;;;;;;;;2099062;28;2565;-76
2021/10/07 06:23:46;;;;;;;;;;;;;;;;;;2098484;28;4442;-76
2021/10/07 06:24:46;;;;;;;;;;;;;;;;;;2099212;28;4748;-76
2021/10/07 06:25:47;;;;;;;;;;;;;;;;;;2098519;28;4606;-76
2021/10/07 06:26:48;;;;;;;;;;;;;;;;;;2098084;28;4406;-76
2021/10/07 06:27:50;;;;;;;;;;;;;;;;;;2100323;28;4538;-76
2021/10/07 06:28:50;;;;;;;;;;;;;;;;;;2099303;28;4517;-76
2021/10/07 06:29:51;;;;;;;;;;;;;;;;;;2100010;28;4486;-75
2021/10/07 06:30:51;;;;;;;;;;;;;;;;;;2101324;28;1142;-76
2021/10/07 06:31:52;;;;;;;;;;;;;;;;;;2099665;28;4991;-76
2021/10/07 06:32:52;;;;;;;;;;;;;;;;;;2100804;28;5114;-76
2021/10/07 06:33:53;;;;;;;;;;;;;;;;;;2100539;28;4271;-76
2021/10/07 06:34:54;;;;;;;;;;;;;;;;;;2100296;28;5632;-76
2021/10/07 06:35:56;;;;;;;;;;;;;;;;;;2099844;28;5177;-76
2021/10/07 06:36:57;;;;;;;;;;;;;;;;;;2101332;27;4502;-76
2021/10/07 06:37:58;;;;;;;;;;;;;;;;;;2099953;28;4530;-75
2021/10/07 06:38:59;;;;;;;;;;;;;;;;;;2102248;28;4673;-76
2021/10/07 06:39:59;;;;;;;;;;;;;;;;;;2100458;28;4404;-76
2021/10/07 06:41:00;;;;;;;;;;;;;;;;;;2101935;28;3622;-75
2021/10/07 06:42:01;;;;;;;;;;;;;;;;;;2102032;28;4364;-76
2021/10/07 06:43:01;;;;;;;;;;;;;;;;;;2102186;28;1988;-76
2021/10/07 06:44:02;;;;;;;;;;;;;;;;;;2102800;28;1177;-76
2021/10/07 06:45:04;;;;;;;;;;;;;;;;;;2102613;28;1061;-76
2021/10/07 06:46:05;;;;;;;;;;;;;;;;;;2102572;28;4371;-76
2021/10/07 06:47:07;;;;;;;;;;;;;;;;;;2100478;28;5274;-75
2021/10/07 06:48:07;;;;;;;;;;;;;;;;;;2102037;28;4188;-76
2021/10/07 06:49:08;;;;;;;;;;;;;;;;;;2101657;28;4405;-76
2021/10/07 06:50:09;;;;;;;;;;;;;;;;;;2101552;28;1554;-75
2021/10/07 06:51:10;;;;;;;;;;;;;;;;;;2102606;28;1165;-76
2021/10/07 06:52:10;;;;;;;;;;;;;;;;;;2102640;28;1119;-75
2021/10/07 06:53:11;;;;;;;;;;;;;;;;;;2103137;28;4372;-76
2021/10/07 06:54:11;;;;;;;;;;;;;;;;;;2100210;28;1508;-75
2021/10/07 06:55:12;;;;;;;;;;;;;;;;;;2099459;28;5066;-75
2021/10/07 06:56:13;;;;;;;;;;;;;;;;;;2099505;28;1980;-76
2021/10/07 06:57:14;;;;;;;;;;;;;;;;;;2099846;28;1910;-76
2021/10/07 06:58:16;;;;;;;;;;;;;;;;;;2099549;28;4533;-76
2021/10/07 06:59:16;;;;;;;;;;;;;;;;;;2099502;28;4419;-76
2021/10/07 07:00:17;;;;;;;;;;;;;;;;;;2099414;28;4398;-76
2021/10/07 07:01:17;;;;;;;;;;;;;;;;;;2100345;28;1279;-76
2021/10/07 07:02:18;;;;;;;;;;;;;;;;;;2099918;27;1458;-76
2021/10/07 07:03:19;;;;;;;;;;;;;;;;;;2099771;28;1987;-76
2021/10/07 07:04:21;;;;;;;;;;;;;;;;;;2099967;28;4266;-76
2021/10/07 07:05:22;;;;;;;;;;;;;;;;;;2099546;28;1238;-76
2021/10/07 07:06:22;;;;;;;;;;;;;;;;;;2100113;28;1154;-76